Barras, Brazil
Current Conditions -  °F | °C
As of 8:00 PM on Sunday 21 Dec 2014 (Local Time) from SBTE Reporting Station
Clear Clear  
Wind Chill: 90°   Ceiling: Unl
Heat Index: 90°   Visibility: 6mi
Dew Point: 61°   Wind: 3mph
Humidity: 38%   Direction: 180°S
Pressure: 29.77"   Gusts: NA
Location:  4.24°S, 42.29°W
Report Text: SBTE 212300Z 18003KT CAVOK 32/16 Q1008
Loading
Personal Weather Stations






























Interactive Weather Map New forecast layout! Learn more

10-Day Weather Forecast

Advertisements
Track Severe Weather on mobile